createdAt,value
2017-06-14T00:00:02.319Z,13.22
2017-06-14T00:10:02.281Z,13.08
2017-06-14T00:20:02.225Z,12.95
2017-06-14T00:30:02.666Z,12.86
2017-06-14T00:40:02.841Z,12.78
2017-06-14T00:50:02.863Z,12.61
2017-06-14T01:00:02.343Z,12.38
2017-06-14T01:10:02.340Z,12.33
2017-06-14T01:20:02.453Z,12.38
2017-06-14T01:30:02.913Z,12.4
2017-06-14T01:40:02.428Z,12.41
2017-06-14T01:50:02.791Z,12.44
2017-06-14T02:00:02.265Z,12.44
2017-06-14T02:10:03.032Z,12.34
2017-06-14T02:20:02.894Z,12.22
2017-06-14T02:30:02.344Z,12.16
2017-06-14T02:40:02.152Z,12.1
2017-06-14T02:50:02.146Z,12.03
2017-06-14T03:00:02.621Z,11.93
2017-06-14T03:10:02.367Z,11.79
2017-06-14T03:20:02.339Z,11.55
2017-06-14T03:30:02.799Z,11.37
2017-06-14T03:40:02.580Z,11.23
2017-06-14T03:50:02.545Z,11.15
2017-06-14T04:00:03.039Z,11.08
2017-06-14T04:10:02.819Z,11.09
2017-06-14T04:20:02.780Z,11.12
2017-06-14T04:30:02.278Z,11.24
2017-06-14T04:40:02.547Z,11.42
2017-06-14T04:50:02.465Z,11.75
2017-06-14T05:00:02.239Z,11.98
2017-06-14T05:10:02.162Z,12.1
2017-06-14T05:20:02.194Z,12.47
2017-06-14T05:30:02.679Z,12.57
2017-06-14T05:40:02.342Z,12.69
2017-06-14T05:50:02.315Z,12.84
2017-06-14T06:00:02.832Z,12.94
2017-06-14T06:10:02.946Z,13.1
2017-06-14T06:20:03.089Z,13.35
2017-06-14T06:30:02.546Z,13.76
2017-06-14T06:40:02.379Z,13.95
2017-06-14T06:50:02.146Z,14.35
2017-06-14T07:00:02.614Z,15.91
2017-06-14T07:10:02.366Z,15.99
2017-06-14T07:20:02.712Z,17.32
2017-06-14T07:30:02.166Z,17.68
2017-06-14T07:40:02.380Z,18.78
2017-06-14T07:50:02.261Z,19.76
2017-06-14T08:00:02.720Z,20.2
2017-06-14T08:10:02.435Z,20.5
2017-06-14T08:20:03.126Z,20.86
2017-06-14T08:30:02.594Z,21.48
2017-06-14T08:40:02.587Z,21.34
2017-06-14T08:50:02.633Z,22.2
2017-06-14T09:00:03.123Z,22.55
2017-06-14T09:10:02.827Z,23.54
2017-06-14T09:20:02.243Z,23.71
2017-06-14T09:30:02.694Z,23.22
2017-06-14T09:40:02.655Z,22.97
2017-06-14T09:50:02.374Z,23.84
2017-06-14T10:00:02.879Z,24.02
2017-06-14T10:10:02.765Z,23.49
2017-06-14T10:20:02.417Z,22.93
2017-06-14T10:30:02.887Z,22.68
2017-06-14T10:40:02.279Z,22.57
2017-06-14T10:50:03.020Z,23.01
2017-06-14T11:00:02.520Z,23.15
2017-06-14T11:10:02.743Z,23.62
2017-06-14T11:20:02.749Z,23.59
2017-06-14T11:30:02.230Z,23.55
2017-06-14T11:40:02.799Z,23.88
2017-06-14T11:50:02.785Z,24
2017-06-14T12:00:02.262Z,24.76
2017-06-14T12:10:02.345Z,25
2017-06-14T12:20:02.839Z,24.79
2017-06-14T12:30:02.265Z,25.12
2017-06-14T12:40:02.753Z,24.77
2017-06-14T12:50:03.053Z,24.54
2017-06-14T13:00:02.500Z,24.35
2017-06-14T13:10:02.315Z,24.1
2017-06-14T13:20:02.309Z,24.17
2017-06-14T13:30:02.781Z,24.11
2017-06-14T13:40:02.977Z,24.1
2017-06-14T13:50:02.182Z,24.35
2017-06-14T14:00:02.672Z,24.1
2017-06-14T14:10:02.339Z,24.21
2017-06-14T14:20:02.306Z,24.5
2017-06-14T14:30:02.753Z,24.87
2017-06-14T14:40:02.620Z,24.6
2017-06-14T14:50:02.786Z,24.54
2017-06-14T15:00:02.262Z,24.79
2017-06-14T15:10:02.402Z,24.84
2017-06-14T15:20:02.664Z,24.78
2017-06-14T15:30:03.101Z,24.59
2017-06-14T15:40:02.797Z,24.49
2017-06-14T15:50:02.717Z,24.39
2017-06-14T16:00:17.134Z,23.99
2017-06-14T16:10:02.997Z,23.89
2017-06-14T16:20:03.071Z,23.89
2017-06-14T16:30:02.529Z,23.87
2017-06-14T16:40:03.012Z,23.69
2017-06-14T16:50:02.434Z,23.54
2017-06-14T17:00:02.947Z,23.38
2017-06-14T17:10:02.624Z,23.4
2017-06-14T17:20:02.829Z,23.38
2017-06-14T17:30:02.308Z,23.25
2017-06-14T17:40:02.756Z,23.08
2017-06-14T17:50:02.628Z,22.86
2017-06-14T18:00:03.136Z,22.63
2017-06-14T18:10:02.243Z,22.28
2017-06-14T18:20:02.781Z,21.96
2017-06-14T18:30:02.282Z,21.55
2017-06-14T18:40:02.766Z,21.17
2017-06-14T18:50:02.798Z,20.83
2017-06-14T19:00:02.309Z,20.48
2017-06-14T19:10:02.607Z,20.15
2017-06-14T19:20:02.366Z,19.83
2017-06-14T19:30:02.896Z,19.44
2017-06-14T19:40:02.387Z,19.04
2017-06-14T19:50:02.130Z,18.65
2017-06-14T20:00:02.638Z,18.27
2017-06-14T20:10:03.013Z,17.93
2017-06-14T20:20:02.898Z,17.62
2017-06-14T20:30:02.400Z,17.32
2017-06-14T20:40:03.087Z,17.01
2017-06-14T20:50:03.067Z,16.76
2017-06-14T21:00:02.603Z,16.57
2017-06-14T21:10:02.923Z,16.41
2017-06-14T21:20:02.306Z,16.31
2017-06-14T21:30:02.775Z,16.27
2017-06-14T21:40:02.245Z,16.22
2017-06-14T21:50:02.838Z,16.1
2017-06-14T22:00:02.478Z,15.97
2017-06-14T22:10:03.131Z,15.91
2017-06-14T22:20:02.798Z,15.83
2017-06-14T22:30:02.301Z,15.72
2017-06-14T22:40:02.378Z,15.55
2017-06-14T22:50:02.894Z,15.39
2017-06-14T23:00:02.444Z,15.23
2017-06-14T23:10:02.333Z,15.12
2017-06-14T23:20:02.545Z,14.97
2017-06-14T23:30:03.052Z,14.78
2017-06-14T23:40:02.552Z,14.66
2017-06-14T23:50:02.168Z,14.53
